Portada
METAR-TAF:

METAR-TAF

Aeropuertos :

Aeropuerto Internacional Roman Tmetuchl

Koror, Babeldaob, Palaos

latitud: 07-22N, longitud: 134-32E, altitud: 54 m

Observación

El informe se hizo hace 41 minutos, a las 21:50 UTC
Viento 3 kt del este-noreste
Temperatura 25°C
Humedad 94%
Presión 1013 hPa
Visibilidad: 22.5 km
Nubes dispersas a una altura de 1600 ft
Cielo nuboso a una altura de 12000 ft
Cielo nuboso a una altura de 30000 ft

METAR: PTRO 202150Z 06003KT 14SM SCT016 BKN120 BKN300 25/24 A2991

Hora: 07:31 (22:31 UTC)

Pronóstico

El informe se hizo hace 5 horas y 5 minutos, a las 17:26 UTC
Pronóstico válido del 20 a las 18 UTC al 21 a las 18 UTC
Viento 6 kt del este-noreste
Visibilidad: 10 km
Nubes dispersas a una altura de 1500 ft
chaparrones en las proximidades,

TAF: PTRO 201726Z 2018/2118 06006KT P6SM VCSH SCT015

Observaciones y pronósticos meteorológicos de más de 4000 aeropuertos (mensajes METAR y TAF).

Los puntos amarillos y rojos representan las estaciones disponibles.

Ponga el ratón en el punto deseado para ver el nombre de la estación.

Haga clic para ver las observaciones y los pronósticos meteorológicos.

Para cambiar el mapa : haga clic en los botones verdes con una cruz de color negro para hacer un zoom, en el botón verde con un guión para alejar o en las flechas verdes para mapas adyacentes.


METAR-TAF: